sensor_id;sensor_type;location;lat;lon;timestamp;P1;durP1;ratioP1;P2;durP2;ratioP2
27804;SDS011;15183;51.350;11.102;2023-03-01T00:01:28;16.80;;;9.75;;
27804;SDS011;15183;51.350;11.102;2023-03-01T00:03:56;19.00;;;9.95;;
27804;SDS011;15183;51.350;11.102;2023-03-01T00:06:24;19.13;;;9.27;;
27804;SDS011;15183;51.350;11.102;2023-03-01T00:08:51;22.38;;;11.25;;
27804;SDS011;15183;51.350;11.102;2023-03-01T00:11:19;22.95;;;12.23;;
27804;SDS011;15183;51.350;11.102;2023-03-01T00:13:52;17.15;;;9.48;;
27804;SDS011;15183;51.350;11.102;2023-03-01T00:16:22;17.20;;;10.13;;
27804;SDS011;15183;51.350;11.102;2023-03-01T00:18:54;16.10;;;9.73;;
27804;SDS011;15183;51.350;11.102;2023-03-01T00:21:22;17.48;;;9.90;;
27804;SDS011;15183;51.350;11.102;2023-03-01T00:23:50;17.67;;;9.77;;
27804;SDS011;15183;51.350;11.102;2023-03-01T00:26:17;18.77;;;10.00;;
27804;SDS011;15183;51.350;11.102;2023-03-01T00:28:45;16.35;;;9.20;;
27804;SDS011;15183;51.350;11.102;2023-03-01T00:31:14;16.88;;;9.20;;
27804;SDS011;15183;51.350;11.102;2023-03-01T00:33:43;17.20;;;10.40;;
27804;SDS011;15183;51.350;11.102;2023-03-01T00:36:10;18.08;;;11.02;;
27804;SDS011;15183;51.350;11.102;2023-03-01T00:38:39;14.82;;;9.07;;
27804;SDS011;15183;51.350;11.102;2023-03-01T00:41:12;15.05;;;8.82;;
27804;SDS011;15183;51.350;11.102;2023-03-01T00:43:41;23.38;;;10.85;;
27804;SDS011;15183;51.350;11.102;2023-03-01T00:46:11;17.83;;;10.07;;
27804;SDS011;15183;51.350;11.102;2023-03-01T00:48:40;17.40;;;9.75;;
27804;SDS011;15183;51.350;11.102;2023-03-01T00:51:11;16.80;;;9.77;;
27804;SDS011;15183;51.350;11.102;2023-03-01T00:53:44;21.63;;;10.80;;
27804;SDS011;15183;51.350;11.102;2023-03-01T00:56:12;18.67;;;10.25;;
27804;SDS011;15183;51.350;11.102;2023-03-01T00:58:40;15.82;;;9.68;;
27804;SDS011;15183;51.350;11.102;2023-03-01T01:01:08;19.30;;;10.52;;
27804;SDS011;15183;51.350;11.102;2023-03-01T01:03:43;18.65;;;10.68;;
27804;SDS011;15183;51.350;11.102;2023-03-01T01:06:16;17.02;;;10.30;;
27804;SDS011;15183;51.350;11.102;2023-03-01T01:08:54;17.98;;;9.57;;
27804;SDS011;15183;51.350;11.102;2023-03-01T01:11:22;14.65;;;8.98;;
27804;SDS011;15183;51.350;11.102;2023-03-01T01:13:51;17.77;;;9.38;;
27804;SDS011;15183;51.350;11.102;2023-03-01T01:16:19;23.17;;;10.90;;
27804;SDS011;15183;51.350;11.102;2023-03-01T01:18:47;15.30;;;9.25;;
27804;SDS011;15183;51.350;11.102;2023-03-01T01:21:15;14.15;;;8.90;;
27804;SDS011;15183;51.350;11.102;2023-03-01T01:23:45;17.05;;;9.93;;
27804;SDS011;15183;51.350;11.102;2023-03-01T01:26:16;18.75;;;10.68;;
27804;SDS011;15183;51.350;11.102;2023-03-01T01:28:53;15.70;;;8.63;;
27804;SDS011;15183;51.350;11.102;2023-03-01T01:31:20;19.42;;;10.15;;
27804;SDS011;15183;51.350;11.102;2023-03-01T01:33:49;15.57;;;9.27;;
27804;SDS011;15183;51.350;11.102;2023-03-01T01:36:16;16.88;;;9.45;;
27804;SDS011;15183;51.350;11.102;2023-03-01T01:38:43;14.30;;;8.85;;
27804;SDS011;15183;51.350;11.102;2023-03-01T01:41:11;20.70;;;11.95;;
27804;SDS011;15183;51.350;11.102;2023-03-01T01:43:40;17.02;;;8.77;;
27804;SDS011;15183;51.350;11.102;2023-03-01T01:46:19;17.52;;;10.27;;
27804;SDS011;15183;51.350;11.102;2023-03-01T01:48:57;18.30;;;10.00;;
27804;SDS011;15183;51.350;11.102;2023-03-01T01:51:35;17.75;;;10.20;;
27804;SDS011;15183;51.350;11.102;2023-03-01T01:54:08;15.98;;;8.65;;
27804;SDS011;15183;51.350;11.102;2023-03-01T01:56:45;15.95;;;9.75;;
27804;SDS011;15183;51.350;11.102;2023-03-01T01:59:22;14.38;;;8.95;;
27804;SDS011;15183;51.350;11.102;2023-03-01T02:01:51;16.92;;;9.65;;
27804;SDS011;15183;51.350;11.102;2023-03-01T02:04:18;16.40;;;9.07;;
27804;SDS011;15183;51.350;11.102;2023-03-01T02:06:48;16.25;;;9.45;;
27804;SDS011;15183;51.350;11.102;2023-03-01T02:09:23;15.63;;;9.50;;
27804;SDS011;15183;51.350;11.102;2023-03-01T02:11:50;16.08;;;9.20;;
27804;SDS011;15183;51.350;11.102;2023-03-01T02:14:17;19.83;;;10.02;;
27804;SDS011;15183;51.350;11.102;2023-03-01T02:16:44;18.65;;;9.60;;
27804;SDS011;15183;51.350;11.102;2023-03-01T02:19:13;14.95;;;9.25;;
27804;SDS011;15183;51.350;11.102;2023-03-01T02:22:16;16.13;;;8.90;;
27804;SDS011;15183;51.350;11.102;2023-03-01T02:27:55;15.55;;;9.05;;
27804;SDS011;15183;51.350;11.102;2023-03-01T02:30:49;14.52;;;8.43;;
27804;SDS011;15183;51.350;11.102;2023-03-01T02:33:35;14.85;;;8.65;;
27804;SDS011;15183;51.350;11.102;2023-03-01T02:36:06;15.02;;;8.30;;
27804;SDS011;15183;51.350;11.102;2023-03-01T02:38:41;13.63;;;8.95;;
27804;SDS011;15183;51.350;11.102;2023-03-01T02:41:08;14.57;;;8.75;;
27804;SDS011;15183;51.350;11.102;2023-03-01T02:43:40;13.10;;;8.52;;
27804;SDS011;15183;51.350;11.102;2023-03-01T02:46:12;17.35;;;10.18;;
27804;SDS011;15183;51.350;11.102;2023-03-01T02:48:47;14.75;;;9.02;;
27804;SDS011;15183;51.350;11.102;2023-03-01T02:51:31;16.70;;;9.20;;
27804;SDS011;15183;51.350;11.102;2023-03-01T02:56:56;16.67;;;8.77;;
27804;SDS011;15183;51.350;11.102;2023-03-01T02:59:27;15.30;;;9.50;;
27804;SDS011;15183;51.350;11.102;2023-03-01T03:02:00;13.20;;;8.52;;
27804;SDS011;15183;51.350;11.102;2023-03-01T03:04:26;14.52;;;8.43;;
27804;SDS011;15183;51.350;11.102;2023-03-01T03:06:53;16.00;;;9.45;;
27804;SDS011;15183;51.350;11.102;2023-03-01T03:09:19;15.57;;;9.25;;
27804;SDS011;15183;51.350;11.102;2023-03-01T03:11:46;18.17;;;9.50;;
27804;SDS011;15183;51.350;11.102;2023-03-01T03:14:13;16.92;;;9.93;;
27804;SDS011;15183;51.350;11.102;2023-03-01T03:16:42;13.68;;;8.82;;
27804;SDS011;15183;51.350;11.102;2023-03-01T03:19:15;16.67;;;8.75;;
27804;SDS011;15183;51.350;11.102;2023-03-01T03:21:43;16.67;;;8.63;;
27804;SDS011;15183;51.350;11.102;2023-03-01T03:24:10;13.88;;;8.90;;
27804;SDS011;15183;51.350;11.102;2023-03-01T03:26:37;14.65;;;9.13;;
27804;SDS011;15183;51.350;11.102;2023-03-01T03:29:03;16.73;;;9.50;;
27804;SDS011;15183;51.350;11.102;2023-03-01T03:31:30;15.80;;;8.30;;
27804;SDS011;15183;51.350;11.102;2023-03-01T03:33:56;19.30;;;8.90;;
27804;SDS011;15183;51.350;11.102;2023-03-01T03:36:24;15.98;;;9.18;;
27804;SDS011;15183;51.350;11.102;2023-03-01T03:38:51;17.05;;;9.10;;
27804;SDS011;15183;51.350;11.102;2023-03-01T03:41:17;14.93;;;9.20;;
27804;SDS011;15183;51.350;11.102;2023-03-01T03:43:44;17.38;;;8.80;;
27804;SDS011;15183;51.350;11.102;2023-03-01T03:46:11;16.30;;;8.75;;
27804;SDS011;15183;51.350;11.102;2023-03-01T03:48:42;16.30;;;9.10;;
27804;SDS011;15183;51.350;11.102;2023-03-01T03:51:11;13.60;;;7.75;;
27804;SDS011;15183;51.350;11.102;2023-03-01T03:53:40;15.82;;;8.35;;
27804;SDS011;15183;51.350;11.102;2023-03-01T03:56:07;17.90;;;8.95;;
27804;SDS011;15183;51.350;11.102;2023-03-01T03:58:34;16.38;;;9.98;;
27804;SDS011;15183;51.350;11.102;2023-03-01T04:01:00;18.90;;;9.68;;
27804;SDS011;15183;51.350;11.102;2023-03-01T04:03:28;14.10;;;9.35;;
27804;SDS011;15183;51.350;11.102;2023-03-01T04:06:00;16.30;;;9.45;;
27804;SDS011;15183;51.350;11.102;2023-03-01T04:08:27;18.95;;;9.45;;
27804;SDS011;15183;51.350;11.102;2023-03-01T04:10:58;13.88;;;8.93;;
27804;SDS011;15183;51.350;11.102;2023-03-01T04:13:47;17.58;;;8.85;;
27804;SDS011;15183;51.350;11.102;2023-03-01T04:16:13;16.42;;;8.60;;
27804;SDS011;15183;51.350;11.102;2023-03-01T04:18:39;13.27;;;8.52;;
27804;SDS011;15183;51.350;11.102;2023-03-01T04:21:06;14.18;;;8.32;;
27804;SDS011;15183;51.350;11.102;2023-03-01T04:23:32;16.63;;;8.38;;
27804;SDS011;15183;51.350;11.102;2023-03-01T04:25:59;16.00;;;8.80;;
27804;SDS011;15183;51.350;11.102;2023-03-01T04:28:30;14.20;;;8.77;;
27804;SDS011;15183;51.350;11.102;2023-03-01T04:31:05;14.13;;;8.60;;
27804;SDS011;15183;51.350;11.102;2023-03-01T04:33:45;14.95;;;8.88;;
27804;SDS011;15183;51.350;11.102;2023-03-01T04:36:14;14.52;;;8.77;;
27804;SDS011;15183;51.350;11.102;2023-03-01T04:38:43;13.25;;;8.07;;
27804;SDS011;15183;51.350;11.102;2023-03-01T04:41:13;17.85;;;9.07;;
27804;SDS011;15183;51.350;11.102;2023-03-01T04:43:42;15.00;;;9.05;;
27804;SDS011;15183;51.350;11.102;2023-03-01T04:46:11;17.90;;;9.65;;
27804;SDS011;15183;51.350;11.102;2023-03-01T04:48:40;15.80;;;9.73;;
27804;SDS011;15183;51.350;11.102;2023-03-01T04:51:08;13.63;;;8.98;;
27804;SDS011;15183;51.350;11.102;2023-03-01T04:53:39;16.90;;;9.13;;
27804;SDS011;15183;51.350;11.102;2023-03-01T04:56:06;14.77;;;9.65;;
27804;SDS011;15183;51.350;11.102;2023-03-01T04:58:33;23.70;;;12.88;;
27804;SDS011;15183;51.350;11.102;2023-03-01T05:00:59;19.10;;;10.27;;
27804;SDS011;15183;51.350;11.102;2023-03-01T05:03:25;57.97;;;32.63;;
27804;SDS011;15183;51.350;11.102;2023-03-01T05:05:52;23.52;;;13.38;;
27804;SDS011;15183;51.350;11.102;2023-03-01T05:08:19;20.40;;;12.82;;
27804;SDS011;15183;51.350;11.102;2023-03-01T05:10:50;21.35;;;10.35;;
27804;SDS011;15183;51.350;11.102;2023-03-01T05:13:19;16.23;;;9.88;;
27804;SDS011;15183;51.350;11.102;2023-03-01T05:15:56;13.10;;;8.80;;
27804;SDS011;15183;51.350;11.102;2023-03-01T05:18:26;15.77;;;9.52;;
27804;SDS011;15183;51.350;11.102;2023-03-01T05:20:56;16.25;;;9.10;;
27804;SDS011;15183;51.350;11.102;2023-03-01T05:23:36;13.07;;;8.35;;
27804;SDS011;15183;51.350;11.102;2023-03-01T05:26:04;16.40;;;9.00;;
27804;SDS011;15183;51.350;11.102;2023-03-01T05:28:32;13.15;;;8.32;;
27804;SDS011;15183;51.350;11.102;2023-03-01T05:30:59;15.30;;;8.60;;
27804;SDS011;15183;51.350;11.102;2023-03-01T05:33:25;15.25;;;8.93;;
27804;SDS011;15183;51.350;11.102;2023-03-01T05:35:53;14.80;;;8.30;;
27804;SDS011;15183;51.350;11.102;2023-03-01T05:38:20;15.85;;;8.80;;
27804;SDS011;15183;51.350;11.102;2023-03-01T05:40:47;12.75;;;8.27;;
27804;SDS011;15183;51.350;11.102;2023-03-01T05:43:15;13.43;;;8.57;;
27804;SDS011;15183;51.350;11.102;2023-03-01T05:45:42;15.25;;;9.27;;
27804;SDS011;15183;51.350;11.102;2023-03-01T05:48:10;14.48;;;8.40;;
27804;SDS011;15183;51.350;11.102;2023-03-01T05:50:38;12.38;;;7.95;;
27804;SDS011;15183;51.350;11.102;2023-03-01T05:53:11;15.93;;;8.52;;
27804;SDS011;15183;51.350;11.102;2023-03-01T05:55:44;14.65;;;7.97;;
27804;SDS011;15183;51.350;11.102;2023-03-01T05:58:14;14.02;;;8.13;;
27804;SDS011;15183;51.350;11.102;2023-03-01T06:00:44;13.57;;;7.75;;
27804;SDS011;15183;51.350;11.102;2023-03-01T06:03:12;15.60;;;8.68;;
27804;SDS011;15183;51.350;11.102;2023-03-01T06:05:41;13.80;;;8.50;;
27804;SDS011;15183;51.350;11.102;2023-03-01T06:08:09;17.33;;;8.52;;
27804;SDS011;15183;51.350;11.102;2023-03-01T06:10:36;13.52;;;7.80;;
27804;SDS011;15183;51.350;11.102;2023-03-01T06:13:02;15.20;;;8.60;;
27804;SDS011;15183;51.350;11.102;2023-03-01T06:15:30;14.23;;;8.13;;
27804;SDS011;15183;51.350;11.102;2023-03-01T06:17:56;15.43;;;8.60;;
27804;SDS011;15183;51.350;11.102;2023-03-01T06:20:24;15.65;;;8.73;;
27804;SDS011;15183;51.350;11.102;2023-03-01T06:22:52;15.48;;;8.38;;
27804;SDS011;15183;51.350;11.102;2023-03-01T06:25:21;13.00;;;8.25;;
27804;SDS011;15183;51.350;11.102;2023-03-01T06:27:50;14.00;;;7.72;;
27804;SDS011;15183;51.350;11.102;2023-03-01T06:30:18;15.30;;;8.88;;
27804;SDS011;15183;51.350;11.102;2023-03-01T06:32:46;14.98;;;8.82;;
27804;SDS011;15183;51.350;11.102;2023-03-01T06:35:14;16.00;;;9.27;;
27804;SDS011;15183;51.350;11.102;2023-03-01T06:37:45;13.93;;;7.20;;
27804;SDS011;15183;51.350;11.102;2023-03-01T06:40:13;18.80;;;8.05;;
27804;SDS011;15183;51.350;11.102;2023-03-01T06:42:41;13.18;;;7.65;;
27804;SDS011;15183;51.350;11.102;2023-03-01T06:45:12;13.13;;;7.93;;
27804;SDS011;15183;51.350;11.102;2023-03-01T06:47:39;11.30;;;7.38;;
27804;SDS011;15183;51.350;11.102;2023-03-01T06:50:05;15.65;;;9.40;;
27804;SDS011;15183;51.350;11.102;2023-03-01T06:52:32;15.90;;;8.85;;
27804;SDS011;15183;51.350;11.102;2023-03-01T06:54:59;16.83;;;8.60;;
27804;SDS011;15183;51.350;11.102;2023-03-01T06:57:26;17.17;;;9.00;;
27804;SDS011;15183;51.350;11.102;2023-03-01T06:59:53;19.35;;;8.60;;
27804;SDS011;15183;51.350;11.102;2023-03-01T07:02:19;14.77;;;8.73;;
27804;SDS011;15183;51.350;11.102;2023-03-01T07:04:46;14.98;;;8.38;;
27804;SDS011;15183;51.350;11.102;2023-03-01T07:07:14;12.75;;;7.95;;
27804;SDS011;15183;51.350;11.102;2023-03-01T07:09:40;14.27;;;8.00;;
27804;SDS011;15183;51.350;11.102;2023-03-01T07:12:06;18.67;;;9.10;;
27804;SDS011;15183;51.350;11.102;2023-03-01T07:14:33;19.23;;;10.15;;
27804;SDS011;15183;51.350;11.102;2023-03-01T07:17:00;22.73;;;11.20;;
27804;SDS011;15183;51.350;11.102;2023-03-01T07:19:26;18.80;;;10.43;;
27804;SDS011;15183;51.350;11.102;2023-03-01T07:21:53;15.48;;;9.25;;
27804;SDS011;15183;51.350;11.102;2023-03-01T07:24:21;16.52;;;9.23;;
27804;SDS011;15183;51.350;11.102;2023-03-01T07:26:48;19.48;;;10.60;;
27804;SDS011;15183;51.350;11.102;2023-03-01T07:29:15;17.25;;;9.77;;
27804;SDS011;15183;51.350;11.102;2023-03-01T07:31:43;16.90;;;10.00;;
27804;SDS011;15183;51.350;11.102;2023-03-01T07:34:09;20.58;;;9.90;;
27804;SDS011;15183;51.350;11.102;2023-03-01T07:36:36;23.00;;;11.40;;
27804;SDS011;15183;51.350;11.102;2023-03-01T07:39:05;19.75;;;11.27;;
27804;SDS011;15183;51.350;11.102;2023-03-01T07:41:31;18.70;;;10.85;;
27804;SDS011;15183;51.350;11.102;2023-03-01T07:43:57;18.80;;;10.02;;
27804;SDS011;15183;51.350;11.102;2023-03-01T07:46:24;17.60;;;10.32;;
27804;SDS011;15183;51.350;11.102;2023-03-01T07:48:50;19.38;;;10.68;;
27804;SDS011;15183;51.350;11.102;2023-03-01T07:51:16;21.77;;;11.07;;
27804;SDS011;15183;51.350;11.102;2023-03-01T07:53:45;20.40;;;11.70;;
27804;SDS011;15183;51.350;11.102;2023-03-01T07:56:14;15.68;;;9.70;;
27804;SDS011;15183;51.350;11.102;2023-03-01T07:58:44;22.00;;;10.65;;
27804;SDS011;15183;51.350;11.102;2023-03-01T08:01:12;16.20;;;8.90;;
27804;SDS011;15183;51.350;11.102;2023-03-01T08:03:42;18.13;;;9.00;;
27804;SDS011;15183;51.350;11.102;2023-03-01T08:06:09;12.75;;;7.68;;
27804;SDS011;15183;51.350;11.102;2023-03-01T08:08:38;19.98;;;10.73;;
27804;SDS011;15183;51.350;11.102;2023-03-01T08:11:05;17.45;;;9.30;;
27804;SDS011;15183;51.350;11.102;2023-03-01T08:13:33;17.75;;;9.52;;
27804;SDS011;15183;51.350;11.102;2023-03-01T08:16:03;27.58;;;14.35;;
27804;SDS011;15183;51.350;11.102;2023-03-01T08:18:36;30.98;;;17.27;;
27804;SDS011;15183;51.350;11.102;2023-03-01T08:21:06;25.35;;;12.35;;
27804;SDS011;15183;51.350;11.102;2023-03-01T08:23:38;33.47;;;17.42;;
27804;SDS011;15183;51.350;11.102;2023-03-01T08:28:46;27.10;;;16.10;;
27804;SDS011;15183;51.350;11.102;2023-03-01T08:31:15;26.08;;;13.40;;
27804;SDS011;15183;51.350;11.102;2023-03-01T08:33:46;17.65;;;11.43;;
27804;SDS011;15183;51.350;11.102;2023-03-01T08:36:16;18.95;;;11.38;;
27804;SDS011;15183;51.350;11.102;2023-03-01T08:38:44;21.08;;;11.52;;
27804;SDS011;15183;51.350;11.102;2023-03-01T08:41:11;29.95;;;17.17;;
27804;SDS011;15183;51.350;11.102;2023-03-01T08:43:37;34.08;;;19.27;;
27804;SDS011;15183;51.350;11.102;2023-03-01T08:46:04;19.80;;;12.73;;
27804;SDS011;15183;51.350;11.102;2023-03-01T08:48:30;21.65;;;11.85;;
27804;SDS011;15183;51.350;11.102;2023-03-01T08:50:57;17.42;;;10.23;;
27804;SDS011;15183;51.350;11.102;2023-03-01T08:53:32;23.58;;;11.77;;
27804;SDS011;15183;51.350;11.102;2023-03-01T08:56:01;17.95;;;9.80;;
27804;SDS011;15183;51.350;11.102;2023-03-01T08:58:29;18.50;;;10.20;;
27804;SDS011;15183;51.350;11.102;2023-03-01T09:00:55;21.13;;;11.80;;
27804;SDS011;15183;51.350;11.102;2023-03-01T09:03:23;16.55;;;9.82;;
27804;SDS011;15183;51.350;11.102;2023-03-01T09:05:51;15.43;;;8.85;;
27804;SDS011;15183;51.350;11.102;2023-03-01T09:08:18;16.33;;;9.10;;
27804;SDS011;15183;51.350;11.102;2023-03-01T09:10:45;15.93;;;9.68;;
27804;SDS011;15183;51.350;11.102;2023-03-01T09:13:12;20.23;;;9.90;;
27804;SDS011;15183;51.350;11.102;2023-03-01T09:15:38;18.48;;;10.43;;
27804;SDS011;15183;51.350;11.102;2023-03-01T09:18:05;15.95;;;9.63;;
27804;SDS011;15183;51.350;11.102;2023-03-01T09:20:31;17.05;;;9.30;;
27804;SDS011;15183;51.350;11.102;2023-03-01T09:22:58;15.55;;;9.48;;
27804;SDS011;15183;51.350;11.102;2023-03-01T09:25:24;15.02;;;9.13;;
27804;SDS011;15183;51.350;11.102;2023-03-01T09:27:51;16.30;;;9.73;;
27804;SDS011;15183;51.350;11.102;2023-03-01T09:30:18;22.42;;;11.48;;
27804;SDS011;15183;51.350;11.102;2023-03-01T09:32:45;21.23;;;11.65;;
27804;SDS011;15183;51.350;11.102;2023-03-01T09:35:12;21.17;;;11.63;;
27804;SDS011;15183;51.350;11.102;2023-03-01T09:37:39;21.13;;;11.13;;
27804;SDS011;15183;51.350;11.102;2023-03-01T09:40:11;22.58;;;10.70;;
27804;SDS011;15183;51.350;11.102;2023-03-01T09:42:53;19.83;;;10.43;;
27804;SDS011;15183;51.350;11.102;2023-03-01T09:45:33;19.25;;;10.02;;
27804;SDS011;15183;51.350;11.102;2023-03-01T09:48:03;18.38;;;10.18;;
27804;SDS011;15183;51.350;11.102;2023-03-01T09:50:39;21.55;;;10.63;;
27804;SDS011;15183;51.350;11.102;2023-03-01T09:53:19;17.95;;;9.68;;
27804;SDS011;15183;51.350;11.102;2023-03-01T10:01:52;16.48;;;9.63;;
27804;SDS011;15183;51.350;11.102;2023-03-01T10:04:34;18.20;;;10.38;;
27804;SDS011;15183;51.350;11.102;2023-03-01T10:10:33;18.33;;;10.68;;
27804;SDS011;15183;51.350;11.102;2023-03-01T10:13:19;20.40;;;11.48;;
27804;SDS011;15183;51.350;11.102;2023-03-01T10:16:01;23.17;;;11.65;;
27804;SDS011;15183;51.350;11.102;2023-03-01T10:18:39;20.83;;;11.00;;
27804;SDS011;15183;51.350;11.102;2023-03-01T10:21:14;24.83;;;11.82;;
27804;SDS011;15183;51.350;11.102;2023-03-01T10:23:44;29.33;;;12.25;;
27804;SDS011;15183;51.350;11.102;2023-03-01T10:26:30;17.23;;;10.70;;
27804;SDS011;15183;51.350;11.102;2023-03-01T10:29:18;25.02;;;13.13;;
27804;SDS011;15183;51.350;11.102;2023-03-01T10:31:52;20.33;;;11.98;;
27804;SDS011;15183;51.350;11.102;2023-03-01T10:34:20;23.80;;;13.20;;
27804;SDS011;15183;51.350;11.102;2023-03-01T10:37:01;24.08;;;12.35;;
27804;SDS011;15183;51.350;11.102;2023-03-01T10:39:56;23.80;;;14.00;;
27804;SDS011;15183;51.350;11.102;2023-03-01T10:42:40;25.00;;;13.82;;
27804;SDS011;15183;51.350;11.102;2023-03-01T10:45:16;20.92;;;11.95;;
27804;SDS011;15183;51.350;11.102;2023-03-01T10:48:05;17.85;;;10.75;;
27804;SDS011;15183;51.350;11.102;2023-03-01T10:50:32;23.90;;;12.77;;
27804;SDS011;15183;51.350;11.102;2023-03-01T10:53:02;19.35;;;12.00;;
27804;SDS011;15183;51.350;11.102;2023-03-01T10:55:37;24.92;;;12.95;;
27804;SDS011;15183;51.350;11.102;2023-03-01T10:58:16;20.13;;;11.27;;
27804;SDS011;15183;51.350;11.102;2023-03-01T11:00:50;19.13;;;10.80;;
27804;SDS011;15183;51.350;11.102;2023-03-01T11:03:27;17.85;;;10.27;;
27804;SDS011;15183;51.350;11.102;2023-03-01T11:06:02;16.27;;;9.43;;
27804;SDS011;15183;51.350;11.102;2023-03-01T11:08:42;18.45;;;9.93;;
27804;SDS011;15183;51.350;11.102;2023-03-01T11:11:18;18.92;;;10.65;;
27804;SDS011;15183;51.350;11.102;2023-03-01T11:14:12;19.65;;;9.98;;
27804;SDS011;15183;51.350;11.102;2023-03-01T11:16:44;20.80;;;10.50;;
27804;SDS011;15183;51.350;11.102;2023-03-01T11:19:15;12.45;;;8.27;;
27804;SDS011;15183;51.350;11.102;2023-03-01T11:27:20;16.55;;;8.50;;
27804;SDS011;15183;51.350;11.102;2023-03-01T11:35:37;16.80;;;9.23;;
27804;SDS011;15183;51.350;11.102;2023-03-01T11:38:27;16.45;;;8.70;;
27804;SDS011;15183;51.350;11.102;2023-03-01T11:43:58;13.80;;;7.65;;
27804;SDS011;15183;51.350;11.102;2023-03-01T11:58:02;10.90;;;6.90;;
27804;SDS011;15183;51.350;11.102;2023-03-01T12:04:21;14.65;;;8.18;;
27804;SDS011;15183;51.350;11.102;2023-03-01T12:22:12;13.00;;;7.75;;
27804;SDS011;15183;51.350;11.102;2023-03-01T12:25:22;20.25;;;8.60;;
27804;SDS011;15183;51.350;11.102;2023-03-01T12:31:43;14.52;;;7.63;;
27804;SDS011;15183;51.350;11.102;2023-03-01T12:35:14;13.68;;;9.15;;
27804;SDS011;15183;51.350;11.102;2023-03-01T12:41:04;14.77;;;8.65;;
27804;SDS011;15183;51.350;11.102;2023-03-01T12:44:14;17.02;;;9.20;;
27804;SDS011;15183;51.350;11.102;2023-03-01T12:47:22;15.35;;;8.98;;
27804;SDS011;15183;51.350;11.102;2023-03-01T12:50:23;12.30;;;7.82;;
27804;SDS011;15183;51.350;11.102;2023-03-01T12:52:58;16.00;;;8.60;;
27804;SDS011;15183;51.350;11.102;2023-03-01T12:55:29;14.55;;;8.10;;
27804;SDS011;15183;51.350;11.102;2023-03-01T13:03:47;13.05;;;7.68;;
27804;SDS011;15183;51.350;11.102;2023-03-01T13:06:47;12.80;;;7.68;;
27804;SDS011;15183;51.350;11.102;2023-03-01T13:15:26;13.85;;;7.72;;
27804;SDS011;15183;51.350;11.102;2023-03-01T13:18:26;9.25;;;6.72;;
27804;SDS011;15183;51.350;11.102;2023-03-01T13:20:56;12.15;;;7.07;;
27804;SDS011;15183;51.350;11.102;2023-03-01T13:23:26;11.20;;;6.65;;
27804;SDS011;15183;51.350;11.102;2023-03-01T13:28:53;11.98;;;7.10;;
27804;SDS011;15183;51.350;11.102;2023-03-01T13:33:52;14.98;;;8.45;;
27804;SDS011;15183;51.350;11.102;2023-03-01T13:38:59;9.45;;;6.30;;
27804;SDS011;15183;51.350;11.102;2023-03-01T13:44:20;11.93;;;6.80;;
27804;SDS011;15183;51.350;11.102;2023-03-01T13:49:51;14.15;;;6.30;;
27804;SDS011;15183;51.350;11.102;2023-03-01T13:52:39;11.85;;;6.72;;
27804;SDS011;15183;51.350;11.102;2023-03-01T13:57:50;12.77;;;6.47;;
27804;SDS011;15183;51.350;11.102;2023-03-01T14:00:33;11.15;;;6.00;;
27804;SDS011;15183;51.350;11.102;2023-03-01T14:03:20;9.23;;;6.43;;
27804;SDS011;15183;51.350;11.102;2023-03-01T14:08:35;12.02;;;6.60;;
27804;SDS011;15183;51.350;11.102;2023-03-01T14:17:14;9.07;;;5.70;;
27804;SDS011;15183;51.350;11.102;2023-03-01T14:22:47;10.13;;;6.07;;
27804;SDS011;15183;51.350;11.102;2023-03-01T14:25:18;9.70;;;6.03;;
27804;SDS011;15183;51.350;11.102;2023-03-01T14:27:59;8.02;;;4.63;;
27804;SDS011;15183;51.350;11.102;2023-03-01T14:30:54;11.13;;;5.72;;
27804;SDS011;15183;51.350;11.102;2023-03-01T14:33:35;8.98;;;5.35;;
27804;SDS011;15183;51.350;11.102;2023-03-01T14:36:04;8.30;;;5.07;;
27804;SDS011;15183;51.350;11.102;2023-03-01T14:38:39;8.68;;;4.68;;
27804;SDS011;15183;51.350;11.102;2023-03-01T14:41:15;9.90;;;5.35;;
27804;SDS011;15183;51.350;11.102;2023-03-01T14:43:52;7.43;;;5.05;;
27804;SDS011;15183;51.350;11.102;2023-03-01T14:51:52;8.55;;;5.30;;
27804;SDS011;15183;51.350;11.102;2023-03-01T14:57:17;7.97;;;4.75;;
27804;SDS011;15183;51.350;11.102;2023-03-01T14:59:52;9.30;;;4.05;;
27804;SDS011;15183;51.350;11.102;2023-03-01T15:02:30;6.47;;;4.32;;
27804;SDS011;15183;51.350;11.102;2023-03-01T15:04:59;10.02;;;4.50;;
27804;SDS011;15183;51.350;11.102;2023-03-01T15:07:33;6.95;;;4.60;;
27804;SDS011;15183;51.350;11.102;2023-03-01T15:10:11;6.97;;;4.45;;
27804;SDS011;15183;51.350;11.102;2023-03-01T15:12:51;8.38;;;5.35;;
27804;SDS011;15183;51.350;11.102;2023-03-01T15:15:22;8.07;;;5.28;;
27804;SDS011;15183;51.350;11.102;2023-03-01T15:18:02;8.65;;;6.53;;
27804;SDS011;15183;51.350;11.102;2023-03-01T15:20:32;11.25;;;6.20;;
27804;SDS011;15183;51.350;11.102;2023-03-01T15:23:01;14.40;;;7.95;;
27804;SDS011;15183;51.350;11.102;2023-03-01T15:25:30;15.45;;;8.90;;
27804;SDS011;15183;51.350;11.102;2023-03-01T15:27:59;7.45;;;5.10;;
27804;SDS011;15183;51.350;11.102;2023-03-01T15:30:31;12.35;;;5.60;;
27804;SDS011;15183;51.350;11.102;2023-03-01T15:35:53;9.05;;;4.07;;
27804;SDS011;15183;51.350;11.102;2023-03-01T15:38:25;9.52;;;4.90;;
27804;SDS011;15183;51.350;11.102;2023-03-01T15:40:55;10.48;;;4.93;;
27804;SDS011;15183;51.350;11.102;2023-03-01T15:43:40;8.85;;;5.05;;
27804;SDS011;15183;51.350;11.102;2023-03-01T15:46:31;8.25;;;4.78;;
27804;SDS011;15183;51.350;11.102;2023-03-01T15:49:02;8.02;;;4.10;;
27804;SDS011;15183;51.350;11.102;2023-03-01T15:51:50;11.15;;;4.85;;
27804;SDS011;15183;51.350;11.102;2023-03-01T15:54:21;6.72;;;4.60;;
27804;SDS011;15183;51.350;11.102;2023-03-01T15:56:50;5.88;;;4.45;;
27804;SDS011;15183;51.350;11.102;2023-03-01T15:59:17;9.65;;;5.07;;
27804;SDS011;15183;51.350;11.102;2023-03-01T16:01:44;8.35;;;4.38;;
27804;SDS011;15183;51.350;11.102;2023-03-01T16:04:12;7.20;;;4.65;;
27804;SDS011;15183;51.350;11.102;2023-03-01T16:06:46;12.32;;;5.60;;
27804;SDS011;15183;51.350;11.102;2023-03-01T16:09:20;11.90;;;5.45;;
27804;SDS011;15183;51.350;11.102;2023-03-01T16:11:52;10.60;;;5.28;;
27804;SDS011;15183;51.350;11.102;2023-03-01T16:14:19;9.65;;;6.03;;
27804;SDS011;15183;51.350;11.102;2023-03-01T16:16:46;11.13;;;6.85;;
27804;SDS011;15183;51.350;11.102;2023-03-01T16:19:16;9.85;;;5.80;;
27804;SDS011;15183;51.350;11.102;2023-03-01T16:21:42;9.73;;;5.82;;
27804;SDS011;15183;51.350;11.102;2023-03-01T16:24:12;12.52;;;6.53;;
27804;SDS011;15183;51.350;11.102;2023-03-01T16:26:39;20.73;;;11.70;;
27804;SDS011;15183;51.350;11.102;2023-03-01T16:29:05;19.00;;;9.90;;
27804;SDS011;15183;51.350;11.102;2023-03-01T16:31:32;23.60;;;11.57;;
27804;SDS011;15183;51.350;11.102;2023-03-01T16:33:58;21.98;;;12.20;;
27804;SDS011;15183;51.350;11.102;2023-03-01T16:36:25;15.98;;;9.88;;
27804;SDS011;15183;51.350;11.102;2023-03-01T16:38:54;21.30;;;9.77;;
27804;SDS011;15183;51.350;11.102;2023-03-01T16:41:23;12.40;;;7.18;;
27804;SDS011;15183;51.350;11.102;2023-03-01T16:43:50;14.98;;;6.90;;
27804;SDS011;15183;51.350;11.102;2023-03-01T16:46:18;12.60;;;6.70;;